createdAt,value
2018-03-21T00:00:49.885Z,11.10
2018-03-21T00:03:17.448Z,10.98
2018-03-21T00:05:45.985Z,10.93
2018-03-21T00:08:13.539Z,10.33
2018-03-21T00:10:41.160Z,9.95
2018-03-21T00:13:08.750Z,9.76
2018-03-21T00:15:36.304Z,10.09
2018-03-21T00:18:03.900Z,10.39
2018-03-21T00:20:31.467Z,10.50
2018-03-21T00:22:59.032Z,10.71
2018-03-21T00:25:26.601Z,10.34
2018-03-21T00:27:54.425Z,9.92
2018-03-21T00:30:21.993Z,9.40
2018-03-21T00:32:50.380Z,9.35
2018-03-21T00:35:17.938Z,9.54
2018-03-21T00:37:45.512Z,9.73
2018-03-21T00:40:13.127Z,9.98
2018-03-21T00:42:40.690Z,10.00
2018-03-21T00:45:08.285Z,9.99
2018-03-21T00:47:35.900Z,10.10
2018-03-21T00:50:03.483Z,9.78
2018-03-21T00:52:31.742Z,9.84
2018-03-21T00:54:59.352Z,9.95
2018-03-21T00:57:26.913Z,10.22
2018-03-21T00:59:54.749Z,10.47
2018-03-21T01:02:22.304Z,10.54
2018-03-21T01:04:50.437Z,10.60
2018-03-21T01:07:19.023Z,10.72
2018-03-21T01:09:46.584Z,10.82
2018-03-21T01:12:14.704Z,10.95
2018-03-21T01:14:42.526Z,10.96
2018-03-21T01:17:10.092Z,10.97
2018-03-21T01:19:37.703Z,10.95
2018-03-21T01:22:05.672Z,10.91
2018-03-21T01:24:33.300Z,10.83
2018-03-21T01:27:00.870Z,10.85
2018-03-21T01:29:29.134Z,10.70
2018-03-21T01:31:57.206Z,10.61
2018-03-21T01:34:24.764Z,10.57
2018-03-21T01:36:52.370Z,10.39
2018-03-21T01:39:19.980Z,10.39
2018-03-21T01:41:47.533Z,10.37
2018-03-21T01:44:15.137Z,10.39
2018-03-21T01:46:42.857Z,10.28
2018-03-21T01:49:10.469Z,10.23
2018-03-21T01:51:38.027Z,9.92
2018-03-21T01:54:05.612Z,10.04
2018-03-21T01:56:33.788Z,9.91
2018-03-21T01:59:01.393Z,10.05
2018-03-21T02:01:28.977Z,10.16
2018-03-21T02:03:57.217Z,10.03
2018-03-21T02:06:24.813Z,9.90
2018-03-21T02:08:52.896Z,10.12
2018-03-21T02:11:20.461Z,10.29
2018-03-21T02:13:48.037Z,10.59
2018-03-21T02:16:15.641Z,10.67
2018-03-21T02:18:43.248Z,10.78
2018-03-21T02:21:10.812Z,10.68
2018-03-21T02:23:38.424Z,10.81
2018-03-21T02:26:06.006Z,11.01
2018-03-21T02:28:33.573Z,11.16
2018-03-21T02:31:01.184Z,11.31
2018-03-21T02:33:29.456Z,11.45
2018-03-21T02:35:57.195Z,11.57
2018-03-21T02:38:25.053Z,11.66
2018-03-21T02:40:53.221Z,11.72
2018-03-21T02:43:20.777Z,11.86
2018-03-21T02:45:48.400Z,11.93
2018-03-21T02:48:16.515Z,12.03
2018-03-21T02:50:44.076Z,12.12
2018-03-21T02:53:11.898Z,11.97
2018-03-21T02:55:39.496Z,11.93
2018-03-21T02:58:07.580Z,11.86
2018-03-21T03:00:35.519Z,11.84
2018-03-21T03:03:03.069Z,11.47
2018-03-21T03:05:30.620Z,11.61
2018-03-21T03:07:58.220Z,11.72
2018-03-21T03:10:25.788Z,11.88
2018-03-21T03:12:53.405Z,12.02
2018-03-21T03:15:20.991Z,12.15
2018-03-21T03:17:48.656Z,11.96
2018-03-21T03:20:16.256Z,11.98
2018-03-21T03:22:43.920Z,12.06
2018-03-21T03:25:11.531Z,12.18
2018-03-21T03:27:39.083Z,12.25
2018-03-21T03:30:07.258Z,12.31
2018-03-21T03:32:34.868Z,12.36
2018-03-21T03:35:02.597Z,12.41
2018-03-21T03:37:30.183Z,12.44
2018-03-21T03:39:57.787Z,12.49
2018-03-21T03:42:25.396Z,12.52
2018-03-21T03:44:52.972Z,12.55
2018-03-21T03:47:20.589Z,12.57
2018-03-21T03:49:48.188Z,12.58
2018-03-21T03:52:15.732Z,12.60
2018-03-21T03:54:43.287Z,12.63
2018-03-21T03:57:10.909Z,12.63
2018-03-21T03:59:38.491Z,12.61
2018-03-21T04:02:06.091Z,12.62
2018-03-21T04:04:33.635Z,12.66
2018-03-21T04:07:01.227Z,12.68
2018-03-21T04:09:28.852Z,12.70
2018-03-21T04:11:56.405Z,12.73
2018-03-21T04:14:23.964Z,12.74
2018-03-21T04:16:51.586Z,12.71
2018-03-21T04:19:19.179Z,12.72
2018-03-21T04:21:46.783Z,12.73
2018-03-21T04:24:14.659Z,12.72
2018-03-21T04:26:42.216Z,12.71
2018-03-21T04:29:09.816Z,12.70
2018-03-21T04:31:37.363Z,12.68
2018-03-21T04:34:04.983Z,12.69
2018-03-21T04:36:32.550Z,12.69
2018-03-21T04:39:00.181Z,12.69
2018-03-21T04:41:27.736Z,12.69
2018-03-21T04:43:55.334Z,12.70
2018-03-21T04:46:22.919Z,12.68
2018-03-21T04:48:50.487Z,12.68
2018-03-21T04:51:18.146Z,12.70
2018-03-21T04:53:45.725Z,12.70
2018-03-21T04:56:13.283Z,12.68
2018-03-21T04:58:41.521Z,12.67
2018-03-21T05:01:10.212Z,12.68
2018-03-21T05:03:37.824Z,12.69
2018-03-21T05:06:05.387Z,12.72
2018-03-21T05:08:32.956Z,12.72
2018-03-21T05:11:00.993Z,12.74
2018-03-21T05:13:28.596Z,12.72
2018-03-21T05:15:56.216Z,12.73
2018-03-21T05:18:23.847Z,12.74
2018-03-21T05:20:51.397Z,12.73
2018-03-21T05:23:19.306Z,12.74
2018-03-21T05:25:46.866Z,12.73
2018-03-21T05:28:14.447Z,12.72
2018-03-21T05:30:42.058Z,12.73
2018-03-21T05:33:09.611Z,12.74
2018-03-21T05:35:37.175Z,12.77
2018-03-21T05:38:04.791Z,12.80
2018-03-21T05:40:32.360Z,12.82
2018-03-21T05:42:59.942Z,12.89
2018-03-21T05:45:27.532Z,12.93
2018-03-21T05:47:55.471Z,12.98
2018-03-21T05:50:23.065Z,12.98
2018-03-21T05:52:50.633Z,12.98
2018-03-21T05:55:19.153Z,12.94
2018-03-21T05:57:46.912Z,12.88
2018-03-21T06:00:14.517Z,12.90
2018-03-21T06:02:42.309Z,12.90
2018-03-21T06:05:10.069Z,12.87
2018-03-21T06:07:37.684Z,12.88
2018-03-21T06:10:06.229Z,12.91
2018-03-21T06:12:33.974Z,13.03
2018-03-21T06:15:01.591Z,13.04
2018-03-21T06:17:29.167Z,13.07
2018-03-21T06:19:57.528Z,13.07
2018-03-21T06:22:25.612Z,13.07
2018-03-21T06:24:53.594Z,13.06
2018-03-21T06:27:21.960Z,13.05
2018-03-21T06:29:51.085Z,13.05
2018-03-21T06:32:19.157Z,13.06
2018-03-21T06:34:47.820Z,13.09
2018-03-21T06:37:15.926Z,13.16
2018-03-21T06:39:44.058Z,13.26
2018-03-21T06:42:11.608Z,13.25
2018-03-21T06:44:39.635Z,13.25
2018-03-21T06:47:07.263Z,13.33
2018-03-21T06:49:34.839Z,13.30
2018-03-21T06:52:02.408Z,13.33
2018-03-21T06:54:30.571Z,13.33
2018-03-21T06:56:58.488Z,13.32
2018-03-21T06:59:26.799Z,13.26
2018-03-21T07:01:54.912Z,13.34
2018-03-21T07:04:23.477Z,13.36
2018-03-21T07:06:51.085Z,13.33
2018-03-21T07:09:18.685Z,13.29
2018-03-21T07:11:46.314Z,13.28
2018-03-21T07:14:25.649Z,13.27
2018-03-21T07:16:53.268Z,13.42
2018-03-21T07:19:20.878Z,13.42
2018-03-21T07:21:48.454Z,13.41
2018-03-21T07:24:16.071Z,13.40
2018-03-21T07:26:44.095Z,13.40
2018-03-21T07:29:11.648Z,13.40
2018-03-21T07:31:39.245Z,13.48
2018-03-21T07:34:06.881Z,13.48
2018-03-21T07:36:34.448Z,13.46
2018-03-21T07:39:02.031Z,13.56
2018-03-21T07:41:29.668Z,13.57
2018-03-21T07:43:57.292Z,13.74
2018-03-21T07:46:25.410Z,13.81
2018-03-21T07:48:53.054Z,13.80
2018-03-21T07:51:20.633Z,13.74
2018-03-21T07:53:48.267Z,13.66
2018-03-21T07:56:15.886Z,13.62
2018-03-21T07:58:43.448Z,13.59
2018-03-21T08:01:11.429Z,13.54
2018-03-21T08:03:39.063Z,13.54
2018-03-21T08:06:06.637Z,13.55
2018-03-21T08:08:35.175Z,13.54
2018-03-21T08:11:02.744Z,13.54
2018-03-21T08:13:30.344Z,13.53
2018-03-21T08:15:57.979Z,13.54
2018-03-21T08:18:25.670Z,13.55
2018-03-21T08:20:53.270Z,13.56
2018-03-21T08:23:20.863Z,13.50
2018-03-21T08:25:48.481Z,13.54
2018-03-21T08:28:16.032Z,13.57
2018-03-21T08:30:43.656Z,13.60
2018-03-21T08:33:12.224Z,13.79
2018-03-21T08:35:40.443Z,13.82
2018-03-21T08:38:08.047Z,13.90
2018-03-21T08:40:35.771Z,13.91
2018-03-21T08:43:04.144Z,13.89
2018-03-21T08:45:33.526Z,13.89
2018-03-21T08:48:01.731Z,13.96
2018-03-21T08:50:29.351Z,13.99
2018-03-21T08:52:57.485Z,13.96
2018-03-21T08:55:25.045Z,13.92
2018-03-21T08:57:52.600Z,13.91
2018-03-21T09:00:20.793Z,13.95
2018-03-21T09:02:48.408Z,14.02
2018-03-21T09:05:16.030Z,14.09
2018-03-21T09:07:43.679Z,14.13
2018-03-21T09:10:11.307Z,14.18
2018-03-21T09:12:39.055Z,14.23
2018-03-21T09:15:06.654Z,14.21
2018-03-21T09:17:34.274Z,14.19
2018-03-21T09:20:01.885Z,14.16
2018-03-21T09:22:29.915Z,14.16
2018-03-21T09:24:57.678Z,14.14
2018-03-21T09:27:25.250Z,14.15
2018-03-21T09:29:52.879Z,14.15
2018-03-21T09:32:20.517Z,14.14
2018-03-21T09:34:48.887Z,14.10
2018-03-21T09:37:16.455Z,14.15
2018-03-21T09:39:44.058Z,14.03
2018-03-21T09:42:11.701Z,13.85
2018-03-21T09:44:39.306Z,13.71
2018-03-21T09:47:06.938Z,12.94
2018-03-21T09:49:34.562Z,12.89
2018-03-21T09:52:02.741Z,13.05
2018-03-21T09:54:35.936Z,12.56
2018-03-21T09:57:03.511Z,12.44
2018-03-21T09:59:31.433Z,12.59
2018-03-21T10:01:59.300Z,12.81
2018-03-21T10:04:27.223Z,12.87
2018-03-21T10:09:48.759Z,12.47
2018-03-21T10:12:16.514Z,12.19
2018-03-21T10:14:44.087Z,11.91
2018-03-21T10:17:11.698Z,11.93
2018-03-21T10:19:39.279Z,11.83
2018-03-21T10:22:08.317Z,11.98
2018-03-21T10:24:36.030Z,12.06
2018-03-21T10:27:03.758Z,12.19
2018-03-21T10:29:31.327Z,12.24
2018-03-21T10:31:58.983Z,12.24
2018-03-21T10:34:26.606Z,12.27
2018-03-21T10:36:54.432Z,12.32
2018-03-21T10:39:23.206Z,12.53
2018-03-21T10:41:50.765Z,12.73
2018-03-21T10:44:18.531Z,12.90
2018-03-21T10:46:46.152Z,13.02
2018-03-21T10:49:13.928Z,13.13
2018-03-21T10:51:41.971Z,12.81
2018-03-21T10:54:09.578Z,12.28
2018-03-21T10:56:37.177Z,12.08
2018-03-21T10:59:05.070Z,12.19
2018-03-21T11:01:47.440Z,11.85
2018-03-21T11:04:15.223Z,11.99
2018-03-21T11:06:43.602Z,11.89
2018-03-21T11:09:11.348Z,12.02
2018-03-21T11:11:39.169Z,11.83
2018-03-21T11:14:06.823Z,11.72
2018-03-21T11:16:34.432Z,11.49
2018-03-21T11:19:01.996Z,11.60
2018-03-21T11:21:29.882Z,11.50
2018-03-21T11:23:57.612Z,11.69
2018-03-21T11:26:25.225Z,11.79
2018-03-21T11:28:52.855Z,11.70
2018-03-21T11:31:20.542Z,11.52
2018-03-21T11:33:48.998Z,11.55
2018-03-21T11:36:16.582Z,11.46
2018-03-21T11:38:44.516Z,11.61
2018-03-21T11:41:12.081Z,11.72
2018-03-21T11:43:39.737Z,11.93
2018-03-21T11:46:07.311Z,12.10
2018-03-21T11:48:35.290Z,12.28
2018-03-21T11:51:02.906Z,12.55
2018-03-21T11:53:31.410Z,12.74
2018-03-21T11:55:59.192Z,12.63
2018-03-21T11:58:26.948Z,12.44
2018-03-21T12:00:54.573Z,12.36
2018-03-21T12:03:22.146Z,12.16
2018-03-21T12:05:49.762Z,12.19
2018-03-21T12:08:17.717Z,12.41
2018-03-21T12:10:45.298Z,12.38
2018-03-21T12:13:12.909Z,12.34
2018-03-21T12:15:40.524Z,12.31
2018-03-21T12:18:08.111Z,12.37
2018-03-21T12:20:35.739Z,12.47
2018-03-21T12:23:04.301Z,12.53
2018-03-21T12:25:32.544Z,12.70
2018-03-21T12:28:01.969Z,12.81
2018-03-21T12:30:29.797Z,12.87
2018-03-21T12:32:57.429Z,13.03
2018-03-21T12:35:25.246Z,13.12
2018-03-21T12:37:53.670Z,13.17
2018-03-21T12:40:21.544Z,13.30
2018-03-21T12:42:50.460Z,13.38
2018-03-21T12:45:18.600Z,13.47
2018-03-21T12:47:48.442Z,13.49
2018-03-21T12:50:16.586Z,13.38
2018-03-21T12:52:44.168Z,13.40
2018-03-21T12:55:11.904Z,13.53
2018-03-21T12:57:39.785Z,13.67
2018-03-21T13:00:07.619Z,13.78
2018-03-21T13:02:35.225Z,13.91
2018-03-21T13:05:04.658Z,14.01
2018-03-21T13:07:33.006Z,14.09
2018-03-21T13:10:00.702Z,14.18
2018-03-21T13:12:29.077Z,14.24
2018-03-21T13:14:57.647Z,14.35
2018-03-21T13:17:25.582Z,14.45
2018-03-21T13:19:53.157Z,14.52
2018-03-21T13:22:21.633Z,14.55
2018-03-21T13:24:49.475Z,14.58
2018-03-21T13:27:19.800Z,14.60
2018-03-21T13:29:48.218Z,14.76
2018-03-21T13:32:17.008Z,14.81
2018-03-21T13:34:44.615Z,14.80
2018-03-21T13:37:12.863Z,14.81
2018-03-21T13:39:40.545Z,14.80
2018-03-21T13:42:08.642Z,14.82
2018-03-21T13:44:36.656Z,14.89
2018-03-21T13:47:05.250Z,14.94
2018-03-21T13:49:34.473Z,14.98
2018-03-21T13:52:03.848Z,15.01
2018-03-21T13:54:32.736Z,15.02
2018-03-21T13:57:00.807Z,15.09
2018-03-21T13:59:28.455Z,15.14
2018-03-21T14:01:56.316Z,15.14
2018-03-21T14:04:24.707Z,15.10
2018-03-21T14:06:52.331Z,15.16
2018-03-21T14:09:20.273Z,15.14
2018-03-21T14:11:48.477Z,15.10
2018-03-21T14:14:16.088Z,15.07
2018-03-21T14:16:43.824Z,15.10
2018-03-21T14:19:11.456Z,15.10
2018-03-21T14:21:39.662Z,15.05
2018-03-21T14:24:08.048Z,15.04
2018-03-21T14:26:40.735Z,14.98
2018-03-21T14:29:08.477Z,15.01
2018-03-21T14:31:36.067Z,14.98
2018-03-21T14:34:04.621Z,14.93
2018-03-21T14:36:32.327Z,14.90
2018-03-21T14:39:00.699Z,14.89
2018-03-21T14:41:28.856Z,14.89
2018-03-21T14:43:57.704Z,14.85
2018-03-21T14:46:30.970Z,14.78
2018-03-21T14:48:58.982Z,14.77
2018-03-21T14:51:26.969Z,14.75
2018-03-21T14:53:54.566Z,14.74
2018-03-21T14:56:22.238Z,14.73
2018-03-21T14:58:50.831Z,14.71
2018-03-21T15:01:18.433Z,14.69
2018-03-21T15:03:46.964Z,14.63
2018-03-21T15:06:15.353Z,14.61
2018-03-21T15:08:43.882Z,14.60
2018-03-21T15:11:11.890Z,14.58
2018-03-21T15:13:39.464Z,14.54
2018-03-21T15:16:07.558Z,14.55
2018-03-21T15:18:35.645Z,14.54
2018-03-21T15:21:03.212Z,14.41
2018-03-21T15:23:31.260Z,14.41
2018-03-21T15:26:00.806Z,14.35
2018-03-21T15:28:29.399Z,14.20
2018-03-21T15:30:56.972Z,13.87
2018-03-21T15:33:24.590Z,13.89
2018-03-21T15:35:53.195Z,13.83
2018-03-21T15:38:21.374Z,13.84
2018-03-21T15:40:49.949Z,13.89
2018-03-21T15:43:17.507Z,13.93
2018-03-21T15:45:45.114Z,13.97
2018-03-21T15:48:12.720Z,13.86
2018-03-21T15:50:40.659Z,13.99
2018-03-21T15:53:08.221Z,14.02
2018-03-21T15:55:36.503Z,14.05
2018-03-21T15:58:05.052Z,13.98
2018-03-21T16:00:32.625Z,13.99
2018-03-21T16:03:00.374Z,13.97
2018-03-21T16:05:27.938Z,13.99
2018-03-21T16:07:56.096Z,13.89
2018-03-21T16:10:23.671Z,13.80
2018-03-21T16:12:51.451Z,13.52
2018-03-21T16:15:19.026Z,13.42
2018-03-21T16:17:46.883Z,13.36
2018-03-21T16:20:14.488Z,13.09
2018-03-21T16:22:42.061Z,12.95
2018-03-21T16:25:10.398Z,12.79
2018-03-21T16:27:37.969Z,12.93
2018-03-21T16:30:06.266Z,12.84
2018-03-21T16:32:33.862Z,12.92
2018-03-21T16:35:01.475Z,12.80
2018-03-21T16:37:29.988Z,12.47
2018-03-21T16:39:58.057Z,12.29
2018-03-21T16:42:26.290Z,12.36
2018-03-21T16:44:53.974Z,12.32
2018-03-21T16:47:21.684Z,12.37
2018-03-21T16:49:49.586Z,12.46
2018-03-21T16:52:19.678Z,12.41
2018-03-21T16:54:47.935Z,12.33
2018-03-21T16:57:16.176Z,12.20
2018-03-21T16:59:43.798Z,12.21
2018-03-21T17:02:11.749Z,12.21
2018-03-21T17:04:39.715Z,12.20
2018-03-21T17:07:07.302Z,12.20
2018-03-21T17:09:36.053Z,12.17
2018-03-21T17:12:04.981Z,12.24
2018-03-21T17:14:35.443Z,12.01
2018-03-21T17:17:04.034Z,12.00
2018-03-21T17:19:32.016Z,11.93
2018-03-21T17:22:00.310Z,12.04
2018-03-21T17:24:29.821Z,12.15
2018-03-21T17:26:57.788Z,12.14
2018-03-21T17:29:25.799Z,12.18
2018-03-21T17:31:55.280Z,12.20
2018-03-21T17:34:25.048Z,12.20
2018-03-21T17:36:54.214Z,12.24
2018-03-21T17:39:22.598Z,12.13
2018-03-21T17:41:51.385Z,12.14
2018-03-21T17:44:19.519Z,11.86
2018-03-21T17:46:47.615Z,11.59
2018-03-21T17:49:16.694Z,11.74
2018-03-21T17:51:46.001Z,11.86
2018-03-21T17:54:14.996Z,11.95
2018-03-21T17:56:44.603Z,12.06
2018-03-21T17:59:14.100Z,12.16
2018-03-21T18:01:42.830Z,12.19
2018-03-21T18:04:12.741Z,12.03
2018-03-21T18:06:42.356Z,12.02
2018-03-21T18:09:11.168Z,12.03
2018-03-21T18:11:42.813Z,12.19
2018-03-21T18:14:11.066Z,12.30
2018-03-21T18:16:39.735Z,12.25
2018-03-21T18:19:09.471Z,11.68
2018-03-21T18:21:38.667Z,11.47
2018-03-21T18:24:08.449Z,11.32
2018-03-21T18:26:37.232Z,11.48
2018-03-21T18:29:06.112Z,11.50
2018-03-21T18:31:35.731Z,11.60
2018-03-21T18:34:04.185Z,11.63
2018-03-21T18:36:32.483Z,11.21
2018-03-21T18:39:02.399Z,10.94
2018-03-21T18:41:30.797Z,10.98
2018-03-21T18:43:59.480Z,11.12
2018-03-21T18:46:28.292Z,11.28
2018-03-21T18:48:59.297Z,11.32
2018-03-21T18:51:28.624Z,11.02
2018-03-21T18:53:58.200Z,10.94
2018-03-21T18:56:27.639Z,11.23
2018-03-21T18:58:59.865Z,11.38
2018-03-21T19:01:29.120Z,11.59
2018-03-21T19:03:57.848Z,11.85
2018-03-21T19:06:28.687Z,11.98
2018-03-21T19:08:58.867Z,11.99
2018-03-21T19:11:27.799Z,11.76
2018-03-21T19:13:57.921Z,11.59
2018-03-21T19:16:27.427Z,11.61
2018-03-21T19:18:56.412Z,11.41
2018-03-21T19:21:26.323Z,11.42
2018-03-21T19:23:55.759Z,11.45
2018-03-21T19:26:25.862Z,11.58
2018-03-21T19:28:54.779Z,11.28
2018-03-21T19:31:23.440Z,10.99
2018-03-21T19:33:51.974Z,10.77
2018-03-21T19:36:20.779Z,10.99
2018-03-21T19:38:49.277Z,10.93
2018-03-21T19:41:17.968Z,10.92
2018-03-21T19:43:47.368Z,10.88
2018-03-21T19:46:15.946Z,10.85
2018-03-21T19:48:44.882Z,10.73
2018-03-21T19:51:13.887Z,10.56
2018-03-21T19:53:42.554Z,10.56
2018-03-21T19:56:12.859Z,10.66
2018-03-21T19:58:41.230Z,10.92
2018-03-21T20:01:10.208Z,11.26
2018-03-21T20:03:39.198Z,11.51
2018-03-21T20:06:09.669Z,11.57
2018-03-21T20:08:39.953Z,11.76
2018-03-21T20:11:08.694Z,11.92
2018-03-21T20:13:37.545Z,12.04
2018-03-21T20:16:06.752Z,12.18
2018-03-21T20:18:35.303Z,12.29
2018-03-21T20:21:04.602Z,12.33
2018-03-21T20:23:33.599Z,12.43
2018-03-21T20:26:02.828Z,12.53
2018-03-21T20:28:31.388Z,12.60
2018-03-21T20:31:00.824Z,12.61
2018-03-21T20:33:30.834Z,12.58
2018-03-21T20:36:00.411Z,12.58
2018-03-21T20:38:28.582Z,12.72
2018-03-21T20:40:56.653Z,12.78
2018-03-21T20:43:25.458Z,12.72
2018-03-21T20:45:53.933Z,12.77
2018-03-21T20:48:23.510Z,12.72
2018-03-21T20:50:51.883Z,12.73
2018-03-21T20:53:20.947Z,12.61
2018-03-21T20:55:49.184Z,12.70
2018-03-21T20:58:16.982Z,12.71
2018-03-21T21:00:44.772Z,12.79
2018-03-21T21:03:12.551Z,12.68
2018-03-21T21:05:40.316Z,12.73
2018-03-21T21:08:08.249Z,12.74
2018-03-21T21:10:35.878Z,12.78
2018-03-21T21:13:03.454Z,12.80
2018-03-21T21:15:32.342Z,12.84
2018-03-21T21:17:59.914Z,12.85
2018-03-21T21:20:27.771Z,12.91
2018-03-21T21:22:55.346Z,12.90
2018-03-21T21:25:22.916Z,12.90
2018-03-21T21:27:53.466Z,12.80
2018-03-21T21:30:21.053Z,12.81
2018-03-21T21:32:48.670Z,12.86
2018-03-21T21:35:16.235Z,12.88
2018-03-21T21:37:44.665Z,12.86
2018-03-21T21:40:12.232Z,12.91
2018-03-21T21:42:40.344Z,12.93
2018-03-21T21:45:08.010Z,12.96
2018-03-21T21:47:35.584Z,12.95
2018-03-21T21:50:06.015Z,12.83
2018-03-21T21:52:34.467Z,12.83
2018-03-21T21:55:02.197Z,12.92
2018-03-21T21:57:29.952Z,12.88
2018-03-21T21:59:57.826Z,12.77
2018-03-21T22:02:25.877Z,12.73
2018-03-21T22:04:53.438Z,12.69
2018-03-21T22:07:23.235Z,12.41
2018-03-21T22:09:51.237Z,12.39
2018-03-21T22:12:24.590Z,12.35
2018-03-21T22:14:52.537Z,12.35
2018-03-21T22:17:20.554Z,12.45
2018-03-21T22:19:48.170Z,12.49
2018-03-21T22:22:16.117Z,12.35
2018-03-21T22:24:43.906Z,12.31
2018-03-21T22:27:11.482Z,12.24
2018-03-21T22:29:39.327Z,12.34
2018-03-21T22:32:07.384Z,12.33
2018-03-21T22:34:34.993Z,12.24
2018-03-21T22:37:02.550Z,12.21
2018-03-21T22:39:30.473Z,12.13
2018-03-21T22:41:58.590Z,12.09
2018-03-21T22:44:26.819Z,12.08
2018-03-21T22:46:54.430Z,12.05
2018-03-21T22:49:21.999Z,12.17
2018-03-21T22:51:50.115Z,12.06
2018-03-21T22:54:17.997Z,11.80
2018-03-21T22:56:45.565Z,11.87
2018-03-21T22:59:13.166Z,11.91
2018-03-21T23:01:40.730Z,12.02
2018-03-21T23:04:08.959Z,11.69
2018-03-21T23:06:36.552Z,11.74
2018-03-21T23:09:04.381Z,11.89
2018-03-21T23:11:31.987Z,11.67
2018-03-21T23:14:00.166Z,11.50
2018-03-21T23:16:27.772Z,11.34
2018-03-21T23:18:56.146Z,11.42
2018-03-21T23:21:23.712Z,11.35
2018-03-21T23:23:52.149Z,11.36
2018-03-21T23:26:19.753Z,11.57
2018-03-21T23:28:47.799Z,11.64
2018-03-21T23:31:15.550Z,11.72
2018-03-21T23:33:43.117Z,11.52
2018-03-21T23:36:11.264Z,11.32
2018-03-21T23:38:38.877Z,11.37
2018-03-21T23:41:06.495Z,11.59
2018-03-21T23:43:34.100Z,11.58
2018-03-21T23:46:02.074Z,11.58
2018-03-21T23:48:29.682Z,11.74
2018-03-21T23:50:57.349Z,11.89
2018-03-21T23:53:24.903Z,11.76
2018-03-21T23:55:54.011Z,11.63
2018-03-21T23:58:21.622Z,11.62
